sensor_id;sensor_type;location;lat;lon;timestamp;pressure;altitude;pressure_sealevel;temperature;humidity
51928;BME280;37953;52.806;18.270;2023-07-31T00:02:00;100015.28;;;20.91;100.00
51928;BME280;37953;52.806;18.270;2023-07-31T00:04:28;100015.28;;;20.91;100.00
51928;BME280;37953;52.806;18.270;2023-07-31T00:06:55;100015.41;;;20.88;100.00
51928;BME280;37953;52.806;18.270;2023-07-31T00:09:20;100021.53;;;20.89;100.00
51928;BME280;37953;52.806;18.270;2023-07-31T00:11:46;100014.63;;;20.86;100.00
51928;BME280;37953;52.806;18.270;2023-07-31T00:14:12;100017.31;;;20.85;100.00
51928;BME280;37953;52.806;18.270;2023-07-31T00:16:38;100023.59;;;20.82;100.00
51928;BME280;37953;52.806;18.270;2023-07-31T00:19:04;100018.47;;;20.79;100.00
51928;BME280;37953;52.806;18.270;2023-07-31T00:21:30;100020.28;;;20.79;100.00
51928;BME280;37953;52.806;18.270;2023-07-31T00:23:56;100021.25;;;20.76;100.00
51928;BME280;37953;52.806;18.270;2023-07-31T00:26:22;100022.19;;;20.75;100.00
51928;BME280;37953;52.806;18.270;2023-07-31T00:28:47;100023.03;;;20.76;100.00
51928;BME280;37953;52.806;18.270;2023-07-31T00:31:13;100006.47;;;20.72;100.00
51928;BME280;37953;52.806;18.270;2023-07-31T00:33:39;100009.28;;;20.69;100.00
51928;BME280;37953;52.806;18.270;2023-07-31T00:36:05;99998.78;;;20.67;100.00
51928;BME280;37953;52.806;18.270;2023-07-31T00:38:31;100000.56;;;20.67;100.00
51928;BME280;37953;52.806;18.270;2023-07-31T00:40:57;99994.44;;;20.66;100.00
51928;BME280;37953;52.806;18.270;2023-07-31T00:43:23;99998.94;;;20.64;100.00
51928;BME280;37953;52.806;18.270;2023-07-31T00:45:49;100000.72;;;20.64;100.00
51928;BME280;37953;52.806;18.270;2023-07-31T00:48:15;100000.78;;;20.62;100.00
51928;BME280;37953;52.806;18.270;2023-07-31T00:50:41;100003.50;;;20.61;100.00
51928;BME280;37953;52.806;18.270;2023-07-31T00:53:06;100020.28;;;20.60;100.00
51928;BME280;37953;52.806;18.270;2023-07-31T00:55:33;100016.75;;;20.59;100.00
51928;BME280;37953;52.806;18.270;2023-07-31T00:57:58;100027.31;;;20.59;100.00
51928;BME280;37953;52.806;18.270;2023-07-31T01:00:24;100021.22;;;20.57;100.00
51928;BME280;37953;52.806;18.270;2023-07-31T01:02:53;100019.56;;;20.54;100.00
51928;BME280;37953;52.806;18.270;2023-07-31T01:05:25;100034.69;;;20.51;100.00
51928;BME280;37953;52.806;18.270;2023-07-31T01:09:01;100029.50;;;20.49;100.00
51928;BME280;37953;52.806;18.270;2023-07-31T01:11:29;100014.72;;;20.45;100.00
51928;BME280;37953;52.806;18.270;2023-07-31T01:14:04;100011.72;;;20.34;100.00
51928;BME280;37953;52.806;18.270;2023-07-31T01:16:30;100014.69;;;20.26;100.00
51928;BME280;37953;52.806;18.270;2023-07-31T01:18:56;100027.16;;;20.23;100.00
51928;BME280;37953;52.806;18.270;2023-07-31T01:27:02;100019.59;;;20.15;100.00
51928;BME280;37953;52.806;18.270;2023-07-31T01:30:39;100015.03;;;20.19;100.00
51928;BME280;37953;52.806;18.270;2023-07-31T01:32:47;100016.28;;;20.10;100.00
51928;BME280;37953;52.806;18.270;2023-07-31T01:35:13;100020.03;;;20.04;100.00
51928;BME280;37953;52.806;18.270;2023-07-31T01:37:39;100020.25;;;20.00;100.00
51928;BME280;37953;52.806;18.270;2023-07-31T01:40:06;100019.53;;;19.96;100.00
51928;BME280;37953;52.806;18.270;2023-07-31T01:42:32;100023.94;;;19.96;100.00
51928;BME280;37953;52.806;18.270;2023-07-31T01:45:04;100016.91;;;19.96;100.00
51928;BME280;37953;52.806;18.270;2023-07-31T01:47:31;100008.28;;;19.92;100.00
51928;BME280;37953;52.806;18.270;2023-07-31T01:49:56;100012.75;;;19.90;100.00
51928;BME280;37953;52.806;18.270;2023-07-31T01:52:22;100019.00;;;19.88;100.00
51928;BME280;37953;52.806;18.270;2023-07-31T01:54:48;100018.09;;;19.89;100.00
51928;BME280;37953;52.806;18.270;2023-07-31T01:57:15;100013.81;;;19.86;100.00
51928;BME280;37953;52.806;18.270;2023-07-31T01:59:40;100015.59;;;19.86;100.00
51928;BME280;37953;52.806;18.270;2023-07-31T02:02:06;100021.75;;;19.85;100.00
51928;BME280;37953;52.806;18.270;2023-07-31T02:04:32;100020.13;;;19.82;100.00
51928;BME280;37953;52.806;18.270;2023-07-31T02:06:58;100013.22;;;19.80;100.00
51928;BME280;37953;52.806;18.270;2023-07-31T02:09:24;100009.72;;;19.79;100.00
51928;BME280;37953;52.806;18.270;2023-07-31T02:11:50;100011.56;;;19.77;100.00
51928;BME280;37953;52.806;18.270;2023-07-31T02:14:16;100014.25;;;19.76;100.00
51928;BME280;37953;52.806;18.270;2023-07-31T02:16:42;100014.38;;;19.72;100.00
51928;BME280;37953;52.806;18.270;2023-07-31T02:19:08;100018.78;;;19.72;100.00
51928;BME280;37953;52.806;18.270;2023-07-31T02:21:34;100015.38;;;19.70;100.00
51928;BME280;37953;52.806;18.270;2023-07-31T02:24:00;100020.75;;;19.67;100.00
51928;BME280;37953;52.806;18.270;2023-07-31T02:26:26;100020.81;;;19.65;100.00
51928;BME280;37953;52.806;18.270;2023-07-31T02:28:52;100016.53;;;19.63;100.00
51928;BME280;37953;52.806;18.270;2023-07-31T02:31:18;100018.38;;;19.61;100.00
51928;BME280;37953;52.806;18.270;2023-07-31T02:33:44;100022.91;;;19.57;100.00
51928;BME280;37953;52.806;18.270;2023-07-31T02:36:10;100023.88;;;19.55;100.00
51928;BME280;37953;52.806;18.270;2023-07-31T02:38:35;100023.16;;;19.51;100.00
51928;BME280;37953;52.806;18.270;2023-07-31T02:41:01;100029.47;;;19.47;100.00
51928;BME280;37953;52.806;18.270;2023-07-31T02:43:27;100032.25;;;19.44;100.00
51928;BME280;37953;52.806;18.270;2023-07-31T02:45:54;100030.59;;;19.41;100.00
51928;BME280;37953;52.806;18.270;2023-07-31T02:48:20;100031.56;;;19.39;100.00
51928;BME280;37953;52.806;18.270;2023-07-31T02:50:47;100036.03;;;19.37;100.00
51928;BME280;37953;52.806;18.270;2023-07-31T02:53:13;100033.53;;;19.33;100.00
51928;BME280;37953;52.806;18.270;2023-07-31T02:55:40;100033.66;;;19.30;100.00
51928;BME280;37953;52.806;18.270;2023-07-31T02:58:06;100027.66;;;19.27;100.00
51928;BME280;37953;52.806;18.270;2023-07-31T03:00:32;100032.97;;;19.25;100.00
51928;BME280;37953;52.806;18.270;2023-07-31T03:02:58;100037.44;;;19.23;100.00
51928;BME280;37953;52.806;18.270;2023-07-31T03:05:24;100037.50;;;19.22;100.00
51928;BME280;37953;52.806;18.270;2023-07-31T03:07:50;100040.22;;;19.20;100.00
51928;BME280;37953;52.806;18.270;2023-07-31T03:10:16;100041.19;;;19.18;100.00
51928;BME280;37953;52.806;18.270;2023-07-31T03:12:43;100041.19;;;19.18;100.00
51928;BME280;37953;52.806;18.270;2023-07-31T03:15:11;100049.19;;;19.15;100.00
51928;BME280;37953;52.806;18.270;2023-07-31T03:17:37;100047.50;;;19.14;100.00
51928;BME280;37953;52.806;18.270;2023-07-31T03:20:03;100046.72;;;19.11;100.00
51928;BME280;37953;52.806;18.270;2023-07-31T03:22:29;100056.44;;;19.09;100.00
51928;BME280;37953;52.806;18.270;2023-07-31T03:24:55;100046.00;;;19.06;100.00
51928;BME280;37953;52.806;18.270;2023-07-31T03:27:21;100049.63;;;19.04;100.00
51928;BME280;37953;52.806;18.270;2023-07-31T03:29:47;100042.72;;;19.01;100.00
51928;BME280;37953;52.806;18.270;2023-07-31T03:32:15;100047.97;;;19.01;100.00
51928;BME280;37953;52.806;18.270;2023-07-31T03:34:41;100045.34;;;19.01;100.00
51928;BME280;37953;52.806;18.270;2023-07-31T03:37:06;100045.44;;;18.98;100.00
51928;BME280;37953;52.806;18.270;2023-07-31T03:39:35;100048.16;;;18.97;100.00
51928;BME280;37953;52.806;18.270;2023-07-31T03:42:01;100050.78;;;18.97;100.00
51928;BME280;37953;52.806;18.270;2023-07-31T03:44:27;100052.53;;;18.96;100.00
51928;BME280;37953;52.806;18.270;2023-07-31T03:46:53;100063.97;;;18.97;100.00
51928;BME280;37953;52.806;18.270;2023-07-31T03:49:19;100059.63;;;18.94;100.00
51928;BME280;37953;52.806;18.270;2023-07-31T03:51:49;100050.91;;;18.94;100.00
51928;BME280;37953;52.806;18.270;2023-07-31T03:54:15;100060.56;;;18.93;100.00
51928;BME280;37953;52.806;18.270;2023-07-31T03:56:41;100062.34;;;18.92;100.00
51928;BME280;37953;52.806;18.270;2023-07-31T03:59:07;100060.63;;;18.91;100.00
51928;BME280;37953;52.806;18.270;2023-07-31T04:01:33;100056.28;;;18.90;100.00
51928;BME280;37953;52.806;18.270;2023-07-31T04:03:59;100063.38;;;18.88;100.00
51928;BME280;37953;52.806;18.270;2023-07-31T04:06:25;100064.28;;;18.87;100.00
51928;BME280;37953;52.806;18.270;2023-07-31T04:08:51;100066.91;;;18.87;100.00
51928;BME280;37953;52.806;18.270;2023-07-31T04:11:17;100065.22;;;18.86;100.00
51928;BME280;37953;52.806;18.270;2023-07-31T04:13:43;100060.81;;;18.87;100.00
51928;BME280;37953;52.806;18.270;2023-07-31T04:16:09;100053.84;;;18.86;100.00
51928;BME280;37953;52.806;18.270;2023-07-31T04:18:35;100061.75;;;18.86;100.00
51928;BME280;37953;52.806;18.270;2023-07-31T04:21:00;100061.75;;;18.86;100.00
51928;BME280;37953;52.806;18.270;2023-07-31T04:23:28;100066.06;;;18.87;100.00
51928;BME280;37953;52.806;18.270;2023-07-31T04:25:54;100059.97;;;18.86;100.00
51928;BME280;37953;52.806;18.270;2023-07-31T04:28:20;100062.63;;;18.85;100.00
51928;BME280;37953;52.806;18.270;2023-07-31T04:30:58;100057.38;;;18.85;100.00
51928;BME280;37953;52.806;18.270;2023-07-31T04:33:24;100067.06;;;18.84;100.00
51928;BME280;37953;52.806;18.270;2023-07-31T04:35:51;100068.88;;;18.82;100.00
51928;BME280;37953;52.806;18.270;2023-07-31T04:38:21;100065.31;;;18.83;100.00
51928;BME280;37953;52.806;18.270;2023-07-31T04:40:48;100068.03;;;18.82;100.00
51928;BME280;37953;52.806;18.270;2023-07-31T04:43:14;100061.88;;;18.81;100.00
51928;BME280;37953;52.806;18.270;2023-07-31T04:45:44;100066.28;;;18.81;100.00
51928;BME280;37953;52.806;18.270;2023-07-31T04:48:15;100075.13;;;18.80;100.00
51928;BME280;37953;52.806;18.270;2023-07-31T04:50:41;100066.41;;;18.78;100.00
51928;BME280;37953;52.806;18.270;2023-07-31T04:53:08;100064.66;;;18.77;100.00
51928;BME280;37953;52.806;18.270;2023-07-31T04:55:33;100063.81;;;18.76;100.00
51928;BME280;37953;52.806;18.270;2023-07-31T04:58:00;100068.16;;;18.77;100.00
51928;BME280;37953;52.806;18.270;2023-07-31T05:00:25;100067.28;;;18.78;100.00
51928;BME280;37953;52.806;18.270;2023-07-31T05:02:51;100057.69;;;18.76;100.00
51928;BME280;37953;52.806;18.270;2023-07-31T05:05:17;100060.25;;;18.77;100.00
51928;BME280;37953;52.806;18.270;2023-07-31T05:07:43;100059.34;;;18.80;100.00
51928;BME280;37953;52.806;18.270;2023-07-31T05:10:09;100063.66;;;18.81;100.00
51928;BME280;37953;52.806;18.270;2023-07-31T05:12:35;100060.13;;;18.82;100.00
51928;BME280;37953;52.806;18.270;2023-07-31T05:15:01;100069.72;;;18.83;100.00
51928;BME280;37953;52.806;18.270;2023-07-31T05:17:28;100061.03;;;18.81;100.00
51928;BME280;37953;52.806;18.270;2023-07-31T05:19:53;100063.63;;;18.82;100.00
51928;BME280;37953;52.806;18.270;2023-07-31T05:22:19;100065.41;;;18.82;100.00
51928;BME280;37953;52.806;18.270;2023-07-31T05:24:45;100066.25;;;18.82;100.00
51928;BME280;37953;52.806;18.270;2023-07-31T05:27:11;100075.00;;;18.83;100.00
51928;BME280;37953;52.806;18.270;2023-07-31T05:29:38;100069.72;;;18.83;100.00
51928;BME280;37953;52.806;18.270;2023-07-31T05:32:04;100076.72;;;18.84;100.00
51928;BME280;37953;52.806;18.270;2023-07-31T05:34:30;100079.28;;;18.85;100.00
51928;BME280;37953;52.806;18.270;2023-07-31T05:36:56;100076.59;;;18.87;100.00
51928;BME280;37953;52.806;18.270;2023-07-31T05:39:22;100070.41;;;18.88;100.00
51928;BME280;37953;52.806;18.270;2023-07-31T05:41:48;100078.25;;;18.89;100.00
51928;BME280;37953;52.806;18.270;2023-07-31T05:44:14;100074.78;;;18.89;100.00
51928;BME280;37953;52.806;18.270;2023-07-31T05:46:40;100073.91;;;18.88;100.00
51928;BME280;37953;52.806;18.270;2023-07-31T05:49:07;100073.84;;;18.90;100.00
51928;BME280;37953;52.806;18.270;2023-07-31T05:51:33;100079.00;;;18.93;100.00
51928;BME280;37953;52.806;18.270;2023-07-31T05:53:58;100062.28;;;18.94;100.00
51928;BME280;37953;52.806;18.270;2023-07-31T05:56:24;100067.44;;;18.97;100.00
51928;BME280;37953;52.806;18.270;2023-07-31T05:58:54;100069.94;;;19.00;100.00
51928;BME280;37953;52.806;18.270;2023-07-31T06:01:20;100072.53;;;19.02;100.00
51928;BME280;37953;52.806;18.270;2023-07-31T06:03:46;100082.91;;;19.05;100.00
51928;BME280;37953;52.806;18.270;2023-07-31T06:06:13;100085.44;;;19.08;100.00
51928;BME280;37953;52.806;18.270;2023-07-31T06:08:39;100074.88;;;19.09;100.00
51928;BME280;37953;52.806;18.270;2023-07-31T06:11:06;100071.25;;;19.12;100.00
51928;BME280;37953;52.806;18.270;2023-07-31T06:13:36;100079.03;;;19.15;100.00
51928;BME280;37953;52.806;18.270;2023-07-31T06:16:03;100073.69;;;19.17;100.00
51928;BME280;37953;52.806;18.270;2023-07-31T06:18:32;100073.69;;;19.17;100.00
51928;BME280;37953;52.806;18.270;2023-07-31T06:20:58;100077.97;;;19.19;100.00
51928;BME280;37953;52.806;18.270;2023-07-31T06:23:24;100074.44;;;19.20;100.00
51928;BME280;37953;52.806;18.270;2023-07-31T06:25:50;100076.94;;;19.23;100.00
51928;BME280;37953;52.806;18.270;2023-07-31T06:28:16;100076.91;;;19.25;100.00
51928;BME280;37953;52.806;18.270;2023-07-31T06:30:42;100081.19;;;19.27;100.00
51928;BME280;37953;52.806;18.270;2023-07-31T06:33:08;100088.88;;;19.32;100.00
51928;BME280;37953;52.806;18.270;2023-07-31T06:35:35;100080.94;;;19.33;100.00
51928;BME280;37953;52.806;18.270;2023-07-31T06:38:01;100085.22;;;19.36;100.00
51928;BME280;37953;52.806;18.270;2023-07-31T06:40:28;100092.09;;;19.40;100.00
51928;BME280;37953;52.806;18.270;2023-07-31T06:42:54;100084.00;;;19.45;100.00
51928;BME280;37953;52.806;18.270;2023-07-31T06:45:20;100075.97;;;19.48;100.00
51928;BME280;37953;52.806;18.270;2023-07-31T06:47:47;100083.63;;;19.54;100.00
51928;BME280;37953;52.806;18.270;2023-07-31T06:50:13;100084.44;;;19.56;100.00
51928;BME280;37953;52.806;18.270;2023-07-31T06:52:39;100086.94;;;19.59;100.00
51928;BME280;37953;52.806;18.270;2023-07-31T06:55:19;100087.69;;;19.63;100.00
51928;BME280;37953;52.806;18.270;2023-07-31T06:57:46;100083.19;;;19.65;100.00
51928;BME280;37953;52.806;18.270;2023-07-31T07:00:13;100080.44;;;19.68;100.00
51928;BME280;37953;52.806;18.270;2023-07-31T07:02:39;100084.75;;;19.70;100.00
51928;BME280;37953;52.806;18.270;2023-07-31T07:05:11;100068.81;;;19.73;100.00
51928;BME280;37953;52.806;18.270;2023-07-31T07:07:37;100073.09;;;19.76;100.00
51928;BME280;37953;52.806;18.270;2023-07-31T07:10:03;100072.91;;;19.81;100.00
51928;BME280;37953;52.806;18.270;2023-07-31T07:12:31;100070.16;;;19.84;100.00
51928;BME280;37953;52.806;18.270;2023-07-31T07:14:59;100073.59;;;19.86;100.00
51928;BME280;37953;52.806;18.270;2023-07-31T07:17:25;100077.06;;;19.86;100.00
51928;BME280;37953;52.806;18.270;2023-07-31T07:19:52;100076.94;;;19.89;100.00
51928;BME280;37953;52.806;18.270;2023-07-31T07:22:18;100083.94;;;19.90;100.00
51928;BME280;37953;52.806;18.270;2023-07-31T07:24:44;100086.56;;;19.90;100.00
51928;BME280;37953;52.806;18.270;2023-07-31T07:27:10;100079.50;;;19.91;100.00
51928;BME280;37953;52.806;18.270;2023-07-31T07:29:37;100083.00;;;19.91;100.00
51928;BME280;37953;52.806;18.270;2023-07-31T07:32:04;100080.44;;;19.90;100.00
51928;BME280;37953;52.806;18.270;2023-07-31T07:34:30;100090.00;;;19.92;100.00
51928;BME280;37953;52.806;18.270;2023-07-31T07:36:56;100075.03;;;19.93;100.00
51928;BME280;37953;52.806;18.270;2023-07-31T07:39:22;100074.13;;;19.94;100.00
51928;BME280;37953;52.806;18.270;2023-07-31T07:41:48;100076.66;;;19.96;100.00
51928;BME280;37953;52.806;18.270;2023-07-31T07:44:14;100077.47;;;19.98;100.00
51928;BME280;37953;52.806;18.270;2023-07-31T07:46:40;100078.34;;;19.98;100.00
51928;BME280;37953;52.806;18.270;2023-07-31T07:49:07;100081.84;;;19.99;100.00
51928;BME280;37953;52.806;18.270;2023-07-31T07:51:33;100080.88;;;20.00;100.00
51928;BME280;37953;52.806;18.270;2023-07-31T07:53:59;100082.53;;;20.02;100.00
51928;BME280;37953;52.806;18.270;2023-07-31T07:56:26;100073.72;;;20.03;100.00
51928;BME280;37953;52.806;18.270;2023-07-31T07:58:52;100076.22;;;20.06;100.00
51928;BME280;37953;52.806;18.270;2023-07-31T08:01:25;100068.19;;;20.09;100.00
51928;BME280;37953;52.806;18.270;2023-07-31T08:03:51;100079.19;;;20.19;100.00
51928;BME280;37953;52.806;18.270;2023-07-31T08:06:17;100072.53;;;20.31;100.00
51928;BME280;37953;52.806;18.270;2023-07-31T08:08:43;100063.50;;;20.37;100.00
51928;BME280;37953;52.806;18.270;2023-07-31T08:11:08;100065.75;;;20.44;100.00
51928;BME280;37953;52.806;18.270;2023-07-31T08:13:35;100068.13;;;20.50;100.00
51928;BME280;37953;52.806;18.270;2023-07-31T08:16:03;100065.19;;;20.58;100.00
51928;BME280;37953;52.806;18.270;2023-07-31T08:18:31;100058.00;;;20.62;100.00
51928;BME280;37953;52.806;18.270;2023-07-31T08:20:57;100065.78;;;20.65;100.00
51928;BME280;37953;52.806;18.270;2023-07-31T08:23:23;100065.03;;;20.61;100.00
51928;BME280;37953;52.806;18.270;2023-07-31T08:25:49;100072.97;;;20.61;100.00
51928;BME280;37953;52.806;18.270;2023-07-31T08:28:16;100066.91;;;20.59;100.00
51928;BME280;37953;52.806;18.270;2023-07-31T08:30:42;100068.72;;;20.57;100.00
51928;BME280;37953;52.806;18.270;2023-07-31T08:33:08;100066.16;;;20.56;100.00
51928;BME280;37953;52.806;18.270;2023-07-31T08:35:34;100059.94;;;20.57;100.00
51928;BME280;37953;52.806;18.270;2023-07-31T08:38:00;100062.56;;;20.58;100.00
51928;BME280;37953;52.806;18.270;2023-07-31T08:40:27;100056.28;;;20.61;100.00
51928;BME280;37953;52.806;18.270;2023-07-31T08:42:55;100057.84;;;20.65;100.00
51928;BME280;37953;52.806;18.270;2023-07-31T08:45:28;100062.06;;;20.69;100.00
51928;BME280;37953;52.806;18.270;2023-07-31T08:47:55;100050.44;;;20.73;100.00
51928;BME280;37953;52.806;18.270;2023-07-31T08:50:23;100051.16;;;20.77;100.00
51928;BME280;37953;52.806;18.270;2023-07-31T08:52:51;100065.16;;;20.79;100.00
51928;BME280;37953;52.806;18.270;2023-07-31T08:55:17;100057.22;;;20.79;100.00
51928;BME280;37953;52.806;18.270;2023-07-31T08:57:50;100059.72;;;20.82;100.00
51928;BME280;37953;52.806;18.270;2023-07-31T09:00:18;100049.16;;;20.82;100.00
51928;BME280;37953;52.806;18.270;2023-07-31T09:03:08;100053.38;;;20.86;100.00
51928;BME280;37953;52.806;18.270;2023-07-31T09:05:36;100038.38;;;20.86;100.00
51928;BME280;37953;52.806;18.270;2023-07-31T09:08:04;100034.88;;;20.86;100.00
51928;BME280;37953;52.806;18.270;2023-07-31T09:10:31;100036.69;;;20.85;100.00
51928;BME280;37953;52.806;18.270;2023-07-31T09:12:57;100032.25;;;20.86;100.00
51928;BME280;37953;52.806;18.270;2023-07-31T09:15:24;100034.88;;;20.86;100.00
51928;BME280;37953;52.806;18.270;2023-07-31T09:17:59;100026.91;;;20.87;100.00
51928;BME280;37953;52.806;18.270;2023-07-31T09:20:25;100025.13;;;20.88;100.00
51928;BME280;37953;52.806;18.270;2023-07-31T09:22:52;100027.69;;;20.89;100.00
51928;BME280;37953;52.806;18.270;2023-07-31T09:25:25;100022.47;;;20.88;100.00
51928;BME280;37953;52.806;18.270;2023-07-31T09:28:03;100025.91;;;20.90;100.00
51928;BME280;37953;52.806;18.270;2023-07-31T09:30:30;100025.91;;;20.90;100.00
51928;BME280;37953;52.806;18.270;2023-07-31T09:33:05;100021.41;;;20.92;100.00
51928;BME280;37953;52.806;18.270;2023-07-31T09:35:35;100011.63;;;20.94;100.00
51928;BME280;37953;52.806;18.270;2023-07-31T09:38:06;100024.75;;;20.96;100.00
51928;BME280;37953;52.806;18.270;2023-07-31T09:40:35;100013.19;;;20.98;100.00
51928;BME280;37953;52.806;18.270;2023-07-31T09:43:06;100003.31;;;21.02;100.00
51928;BME280;37953;52.806;18.270;2023-07-31T09:45:39;100012.91;;;21.04;100.00
51928;BME280;37953;52.806;18.270;2023-07-31T09:48:11;100009.38;;;21.04;100.00
51928;BME280;37953;52.806;18.270;2023-07-31T09:50:41;100008.53;;;21.03;100.00
51928;BME280;37953;52.806;18.270;2023-07-31T09:53:08;100006.59;;;21.07;100.00
51928;BME280;37953;52.806;18.270;2023-07-31T09:55:36;99998.63;;;21.08;100.00
51928;BME280;37953;52.806;18.270;2023-07-31T09:58:19;100002.97;;;21.09;100.00
51928;BME280;37953;52.806;18.270;2023-07-31T10:00:46;99999.41;;;21.10;100.00
51928;BME280;37953;52.806;18.270;2023-07-31T10:03:15;99999.53;;;21.07;100.00
51928;BME280;37953;52.806;18.270;2023-07-31T10:05:46;99990.75;;;21.07;100.00
51928;BME280;37953;52.806;18.270;2023-07-31T10:08:18;99989.25;;;21.01;100.00
51928;BME280;37953;52.806;18.270;2023-07-31T10:10:46;99995.56;;;20.99;100.00
51928;BME280;37953;52.806;18.270;2023-07-31T10:13:14;100008.03;;;20.95;100.00
51928;BME280;37953;52.806;18.270;2023-07-31T10:15:42;100008.19;;;20.92;100.00
51928;BME280;37953;52.806;18.270;2023-07-31T10:18:11;100005.78;;;20.87;100.00
51928;BME280;37953;52.806;18.270;2023-07-31T10:20:40;100001.47;;;20.85;100.00
51928;BME280;37953;52.806;18.270;2023-07-31T10:23:07;100004.28;;;20.82;100.00
51928;BME280;37953;52.806;18.270;2023-07-31T10:25:34;100000.84;;;20.80;100.00
51928;BME280;37953;52.806;18.270;2023-07-31T10:28:04;99996.59;;;20.77;100.00
51928;BME280;37953;52.806;18.270;2023-07-31T10:30:32;100005.56;;;20.73;100.00
51928;BME280;37953;52.806;18.270;2023-07-31T10:33:00;99998.50;;;20.73;100.00
51928;BME280;37953;52.806;18.270;2023-07-31T10:35:27;99990.75;;;20.70;100.00
51928;BME280;37953;52.806;18.270;2023-07-31T10:37:53;99987.31;;;20.68;97.81
51928;BME280;37953;52.806;18.270;2023-07-31T10:40:27;99981.25;;;20.66;98.20
51928;BME280;37953;52.806;18.270;2023-07-31T10:42:56;99989.84;;;20.70;98.43
51928;BME280;37953;52.806;18.270;2023-07-31T10:45:34;99981.94;;;20.70;98.66
51928;BME280;37953;52.806;18.270;2023-07-31T10:48:03;99979.25;;;20.71;100.00
51928;BME280;37953;52.806;18.270;2023-07-31T10:50:30;99977.31;;;20.75;100.00
51928;BME280;37953;52.806;18.270;2023-07-31T10:53:01;99980.56;;;20.80;100.00
51928;BME280;37953;52.806;18.270;2023-07-31T10:55:32;99976.09;;;20.82;100.00
51928;BME280;37953;52.806;18.270;2023-07-31T10:58:06;99972.38;;;20.86;100.00
51928;BME280;37953;52.806;18.270;2023-07-31T11:00:43;99964.38;;;20.88;100.00
51928;BME280;37953;52.806;18.270;2023-07-31T11:03:16;99963.44;;;20.89;100.00
51928;BME280;37953;52.806;18.270;2023-07-31T11:05:44;99957.09;;;20.93;100.00
51928;BME280;37953;52.806;18.270;2023-07-31T11:08:24;99953.25;;;21.00;100.00
51928;BME280;37953;52.806;18.270;2023-07-31T11:11:08;99955.34;;;21.11;100.00
51928;BME280;37953;52.806;18.270;2023-07-31T11:13:51;99960.41;;;21.15;100.00
51928;BME280;37953;52.806;18.270;2023-07-31T11:16:23;99953.25;;;21.18;100.00
51928;BME280;37953;52.806;18.270;2023-07-31T11:19:09;99957.59;;;21.19;100.00
51928;BME280;37953;52.806;18.270;2023-07-31T11:21:36;99970.97;;;21.15;100.00
51928;BME280;37953;52.806;18.270;2023-07-31T11:24:02;99954.34;;;21.13;100.00
51928;BME280;37953;52.806;18.270;2023-07-31T11:26:29;99954.41;;;21.12;100.00
51928;BME280;37953;52.806;18.270;2023-07-31T11:28:56;99958.84;;;21.11;100.00
51928;BME280;37953;52.806;18.270;2023-07-31T11:31:22;99950.19;;;21.08;100.00
51928;BME280;37953;52.806;18.270;2023-07-31T11:33:48;99956.50;;;21.05;100.00
51928;BME280;37953;52.806;18.270;2023-07-31T11:36:20;99956.66;;;21.02;100.00
51928;BME280;37953;52.806;18.270;2023-07-31T11:38:47;99956.78;;;20.99;100.00
51928;BME280;37953;52.806;18.270;2023-07-31T11:41:14;99964.94;;;20.94;100.00
51928;BME280;37953;52.806;18.270;2023-07-31T11:43:42;99956.53;;;20.86;100.00
51928;BME280;37953;52.806;18.270;2023-07-31T11:46:09;99965.53;;;20.82;100.00
51928;BME280;37953;52.806;18.270;2023-07-31T11:48:36;99958.78;;;20.77;100.00
51928;BME280;37953;52.806;18.270;2023-07-31T11:51:08;99951.94;;;20.72;100.00
51928;BME280;37953;52.806;18.270;2023-07-31T11:53:46;99952.06;;;20.69;100.00
51928;BME280;37953;52.806;18.270;2023-07-31T11:56:17;99962.78;;;20.66;100.00
51928;BME280;37953;52.806;18.270;2023-07-31T11:58:46;99954.91;;;20.65;100.00
51928;BME280;37953;52.806;18.270;2023-07-31T12:01:15;99945.31;;;20.64;100.00
51928;BME280;37953;52.806;18.270;2023-07-31T12:03:43;99956.72;;;20.64;100.00
51928;BME280;37953;52.806;18.270;2023-07-31T12:06:18;99954.13;;;20.63;100.00
51928;BME280;37953;52.806;18.270;2023-07-31T12:08:48;99957.84;;;20.59;100.00
51928;BME280;37953;52.806;18.270;2023-07-31T12:11:14;99958.81;;;20.56;100.00
51928;BME280;37953;52.806;18.270;2023-07-31T12:13:41;99958.03;;;20.54;100.00
51928;BME280;37953;52.806;18.270;2023-07-31T12:16:06;99951.75;;;20.57;100.00
51928;BME280;37953;52.806;18.270;2023-07-31T12:18:37;99956.00;;;20.61;100.00
51928;BME280;37953;52.806;18.270;2023-07-31T12:21:05;99952.50;;;20.60;100.00
51928;BME280;37953;52.806;18.270;2023-07-31T12:23:43;99939.16;;;20.63;100.00
51928;BME280;37953;52.806;18.270;2023-07-31T12:26:12;99936.38;;;20.66;100.00
51928;BME280;37953;52.806;18.270;2023-07-31T12:28:49;99932.66;;;20.70;100.00
51928;BME280;37953;52.806;18.270;2023-07-31T12:31:21;99940.59;;;20.70;100.00
51928;BME280;37953;52.806;18.270;2023-07-31T12:33:50;99939.81;;;20.68;100.00
51928;BME280;37953;52.806;18.270;2023-07-31T12:36:18;99934.59;;;20.67;100.00
51928;BME280;37953;52.806;18.270;2023-07-31T12:38:45;99929.47;;;20.64;100.00
51928;BME280;37953;52.806;18.270;2023-07-31T12:41:12;99928.75;;;20.60;100.00
51928;BME280;37953;52.806;18.270;2023-07-31T12:43:40;99920.06;;;20.58;100.00